createdAt,value
2022-08-03T00:00:24.121Z,99.90
2022-08-03T00:02:51.138Z,99.90
2022-08-03T00:05:18.026Z,99.90
2022-08-03T00:07:44.818Z,99.90
2022-08-03T00:10:13.513Z,99.90
2022-08-03T00:12:40.299Z,99.90
2022-08-03T00:15:11.407Z,99.90
2022-08-03T00:17:52.795Z,99.90
2022-08-03T00:20:21.889Z,99.90
2022-08-03T00:22:49.352Z,99.90
2022-08-03T00:25:16.881Z,99.90
2022-08-03T00:27:43.666Z,99.90
2022-08-03T00:30:10.811Z,99.90
2022-08-03T00:32:38.741Z,99.90
2022-08-03T00:35:32.452Z,99.90
2022-08-03T00:37:59.237Z,99.90
2022-08-03T00:40:26.266Z,99.90
2022-08-03T00:42:54.336Z,99.90
2022-08-03T00:45:32.835Z,99.90
2022-08-03T00:48:00.709Z,99.90
2022-08-03T00:50:29.965Z,99.90
2022-08-03T00:52:58.953Z,99.90
2022-08-03T00:55:26.266Z,99.90
2022-08-03T00:57:53.404Z,99.90
2022-08-03T01:00:24.263Z,99.90
2022-08-03T01:02:52.036Z,99.90
2022-08-03T01:05:20.323Z,99.90
2022-08-03T01:08:05.697Z,99.90
2022-08-03T01:10:58.096Z,99.90
2022-08-03T01:14:02.068Z,99.90
2022-08-03T01:16:45.355Z,99.90
2022-08-03T01:19:22.505Z,99.90
2022-08-03T01:22:10.992Z,99.90
2022-08-03T01:25:02.728Z,99.90
2022-08-03T01:28:08.345Z,99.90
2022-08-03T01:30:38.104Z,99.90
2022-08-03T01:33:25.991Z,99.90
2022-08-03T01:36:05.312Z,99.90
2022-08-03T01:38:42.083Z,99.90
2022-08-03T01:41:13.744Z,99.90
2022-08-03T01:44:26.732Z,99.90
2022-08-03T01:46:32.414Z,99.90
2022-08-03T01:48:59.899Z,99.90
2022-08-03T01:51:57.975Z,99.90
2022-08-03T01:54:16.455Z,99.90
2022-08-03T01:56:44.349Z,99.90
2022-08-03T01:59:12.710Z,99.90
2022-08-03T02:02:28.863Z,99.90
2022-08-03T02:04:28.806Z,99.90
2022-08-03T02:07:01.944Z,99.90
2022-08-03T02:09:31.292Z,99.90
2022-08-03T02:11:58.764Z,99.90
2022-08-03T02:14:27.067Z,99.90
2022-08-03T02:16:54.883Z,99.90
2022-08-03T02:19:23.276Z,99.90
2022-08-03T02:21:57.371Z,99.90
2022-08-03T02:24:28.781Z,99.90
2022-08-03T02:26:57.374Z,99.90
2022-08-03T02:29:40.090Z,99.90
2022-08-03T02:32:12.623Z,99.90
2022-08-03T02:34:42.310Z,99.90
2022-08-03T02:37:12.055Z,99.90
2022-08-03T02:39:42.860Z,99.90
2022-08-03T02:42:12.185Z,99.90
2022-08-03T02:44:40.413Z,99.90
2022-08-03T02:47:11.220Z,99.90
2022-08-03T02:49:51.567Z,99.90
2022-08-03T02:52:23.375Z,99.90
2022-08-03T02:54:54.991Z,99.90
2022-08-03T02:57:23.283Z,99.90
2022-08-03T02:59:51.710Z,99.90
2022-08-03T03:02:19.857Z,99.90
2022-08-03T03:05:50.918Z,99.90
2022-08-03T03:07:51.159Z,99.90
2022-08-03T03:10:23.121Z,99.90
2022-08-03T03:12:56.510Z,99.90
2022-08-03T03:15:25.678Z,99.90
2022-08-03T03:17:53.752Z,99.90
2022-08-03T03:22:55.933Z,99.90
2022-08-03T03:25:23.682Z,99.90
2022-08-03T03:27:51.019Z,99.90
2022-08-03T03:30:17.863Z,99.90
2022-08-03T03:32:44.741Z,99.90
2022-08-03T03:35:13.706Z,99.90
2022-08-03T03:37:40.480Z,99.90
2022-08-03T03:40:08.988Z,99.90
2022-08-03T03:42:36.023Z,99.90
2022-08-03T03:45:07.922Z,99.90
2022-08-03T03:47:35.594Z,99.90
2022-08-03T03:50:04.144Z,99.90
2022-08-03T03:52:32.960Z,99.90
2022-08-03T03:55:01.344Z,99.90
2022-08-03T03:57:29.238Z,99.90
2022-08-03T03:59:56.209Z,99.90
2022-08-03T04:02:23.085Z,99.90
2022-08-03T04:05:08.263Z,99.90
2022-08-03T04:08:05.960Z,99.90
2022-08-03T04:10:53.946Z,99.90
2022-08-03T04:13:22.771Z,99.90
2022-08-03T04:15:50.694Z,99.90
2022-08-03T04:18:19.122Z,99.90
2022-08-03T04:20:48.774Z,99.90
2022-08-03T04:23:18.227Z,99.90
2022-08-03T04:25:46.311Z,99.90
2022-08-03T04:28:30.822Z,99.90
2022-08-03T04:31:01.044Z,99.90
2022-08-03T04:33:31.161Z,99.90
2022-08-03T04:36:03.378Z,99.90
2022-08-03T04:38:33.446Z,99.90
2022-08-03T04:41:01.553Z,99.90
2022-08-03T04:43:30.380Z,99.90
2022-08-03T04:45:57.960Z,99.90
2022-08-03T04:48:24.996Z,99.90
2022-08-03T04:50:52.739Z,99.90
2022-08-03T04:53:19.757Z,99.90
2022-08-03T04:55:46.863Z,99.90
2022-08-03T04:58:13.763Z,99.90
2022-08-03T05:00:40.574Z,99.90
2022-08-03T05:03:23.612Z,99.90
2022-08-03T05:06:09.790Z,99.90
2022-08-03T05:08:46.319Z,99.90
2022-08-03T05:11:16.452Z,99.90
2022-08-03T05:13:46.241Z,99.90
2022-08-03T05:16:13.994Z,99.90
2022-08-03T05:18:45.043Z,96.40
2022-08-03T05:21:14.481Z,90.00
2022-08-03T05:23:41.523Z,77.10
2022-08-03T05:26:08.364Z,68.80
2022-08-03T05:28:50.581Z,62.70
2022-08-03T05:31:40.534Z,56.60
2022-08-03T05:34:43.026Z,51.70
2022-08-03T05:37:10.459Z,49.50
2022-08-03T05:39:38.149Z,46.00
2022-08-03T05:42:05.056Z,44.00
2022-08-03T05:44:32.181Z,43.20
2022-08-03T05:46:59.900Z,41.20
2022-08-03T05:49:26.736Z,40.10
2022-08-03T05:51:59.800Z,38.70
2022-08-03T05:54:56.794Z,38.20
2022-08-03T05:57:23.930Z,36.90
2022-08-03T05:59:53.839Z,35.50
2022-08-03T06:02:25.091Z,34.70
2022-08-03T06:04:51.854Z,33.80
2022-08-03T06:07:18.714Z,33.00
2022-08-03T06:10:35.208Z,32.30
2022-08-03T06:12:36.009Z,31.60
2022-08-03T06:15:04.589Z,31.00
2022-08-03T06:17:37.228Z,30.30
2022-08-03T06:20:05.578Z,29.80
2022-08-03T06:22:32.391Z,29.40
2022-08-03T06:25:03.464Z,29.60
2022-08-03T06:27:37.107Z,28.90
2022-08-03T06:30:05.160Z,28.60
2022-08-03T06:32:32.007Z,28.50
2022-08-03T06:34:58.786Z,28.30
2022-08-03T06:37:27.121Z,27.40
2022-08-03T06:39:54.298Z,27.20
2022-08-03T06:42:21.230Z,26.50
2022-08-03T06:44:49.800Z,25.80
2022-08-03T06:47:16.641Z,25.80
2022-08-03T06:49:43.537Z,24.90
2022-08-03T06:52:38.031Z,25.80
2022-08-03T06:55:06.299Z,25.40
2022-08-03T06:57:33.159Z,25.40
2022-08-03T07:00:07.696Z,24.70
2022-08-03T07:02:39.819Z,25.20
2022-08-03T07:05:07.900Z,24.30
2022-08-03T07:07:34.745Z,24.20
2022-08-03T07:10:02.373Z,24.60
2022-08-03T07:12:30.524Z,24.10
2022-08-03T07:15:01.681Z,24.40
2022-08-03T07:17:31.728Z,23.60
2022-08-03T07:19:59.284Z,23.40
2022-08-03T07:22:26.706Z,23.70
2022-08-03T07:24:53.700Z,23.10
2022-08-03T07:27:26.199Z,22.90
2022-08-03T07:29:53.048Z,22.50
2022-08-03T07:32:19.904Z,23.00
2022-08-03T07:34:46.865Z,22.90
2022-08-03T07:37:13.908Z,23.30
2022-08-03T07:39:40.825Z,22.50
2022-08-03T07:42:07.976Z,22.90
2022-08-03T07:44:34.842Z,22.20
2022-08-03T07:47:03.343Z,22.30
2022-08-03T07:49:30.927Z,23.10
2022-08-03T07:52:17.543Z,23.60
2022-08-03T07:54:44.981Z,23.00
2022-08-03T07:57:11.942Z,23.40
2022-08-03T07:59:56.853Z,22.70
2022-08-03T08:05:34.569Z,22.70
2022-08-03T08:08:01.899Z,23.00
2022-08-03T08:10:29.722Z,22.50
2022-08-03T08:12:57.450Z,22.00
2022-08-03T08:15:24.411Z,22.30
2022-08-03T08:17:53.856Z,23.10
2022-08-03T08:20:30.777Z,22.70
2022-08-03T08:23:09.604Z,23.40
2022-08-03T08:25:56.168Z,24.30
2022-08-03T08:28:32.151Z,23.50
2022-08-03T08:31:00.233Z,24.80
2022-08-03T08:33:37.202Z,25.00
2022-08-03T08:36:14.739Z,25.30
2022-08-03T08:38:42.694Z,25.70
2022-08-03T08:41:11.209Z,26.00
2022-08-03T08:43:38.264Z,27.20
2022-08-03T08:46:08.403Z,25.90
2022-08-03T08:48:40.457Z,27.50
2022-08-03T08:51:08.754Z,27.40
2022-08-03T08:53:37.043Z,27.80
2022-08-03T08:56:05.366Z,26.10
2022-08-03T08:58:38.789Z,26.00
2022-08-03T09:01:06.156Z,25.30
2022-08-03T09:03:36.152Z,25.10
2022-08-03T09:06:05.004Z,24.90
2022-08-03T09:08:32.973Z,26.30
2022-08-03T09:11:00.519Z,26.60
2022-08-03T09:13:27.378Z,27.10
2022-08-03T09:16:11.957Z,27.00
2022-08-03T09:18:39.332Z,27.30
2022-08-03T09:21:33.294Z,27.00
2022-08-03T09:24:05.276Z,28.70
2022-08-03T09:26:35.350Z,27.50
2022-08-03T09:29:15.364Z,27.20
2022-08-03T09:31:44.305Z,27.10
2022-08-03T09:34:13.877Z,26.20
2022-08-03T09:36:46.511Z,26.20
2022-08-03T09:39:41.264Z,25.30
2022-08-03T09:42:08.740Z,26.30
2022-08-03T09:44:42.135Z,23.90
2022-08-03T09:47:10.627Z,25.00
2022-08-03T09:49:38.732Z,25.50
2022-08-03T09:52:33.236Z,25.20
2022-08-03T09:55:23.558Z,24.40
2022-08-03T09:58:06.977Z,25.50
2022-08-03T10:00:52.609Z,26.10
2022-08-03T10:03:19.981Z,27.20
2022-08-03T10:05:46.860Z,26.00
2022-08-03T10:08:18.498Z,27.00
2022-08-03T10:10:47.589Z,27.00
2022-08-03T10:13:16.380Z,27.10
2022-08-03T10:16:23.902Z,24.60
2022-08-03T10:18:30.935Z,25.30
2022-08-03T10:21:10.376Z,25.80
2022-08-03T10:23:38.537Z,26.90
2022-08-03T10:26:07.836Z,27.70
2022-08-03T10:28:47.081Z,26.50
2022-08-03T10:31:14.897Z,27.50
2022-08-03T10:33:50.955Z,27.60
2022-08-03T10:36:22.905Z,27.50
2022-08-03T10:38:53.710Z,27.30
2022-08-03T10:41:21.859Z,27.90
2022-08-03T10:43:59.133Z,28.20
2022-08-03T10:46:27.037Z,28.10
2022-08-03T10:48:56.531Z,27.80
2022-08-03T10:51:23.689Z,27.70
2022-08-03T10:53:55.074Z,27.60
2022-08-03T10:56:53.401Z,28.00
2022-08-03T10:59:44.479Z,28.20
2022-08-03T11:02:12.397Z,28.60
2022-08-03T11:04:39.481Z,30.10
2022-08-03T11:07:24.451Z,29.20
2022-08-03T11:09:53.726Z,27.90
2022-08-03T11:12:31.257Z,28.00
2022-08-03T11:15:08.992Z,28.20
2022-08-03T11:17:46.103Z,30.00
2022-08-03T11:20:48.531Z,29.60
2022-08-03T11:23:17.581Z,31.80
2022-08-03T11:26:13.569Z,31.80
2022-08-03T11:28:41.733Z,31.80
2022-08-03T11:31:48.176Z,31.90
2022-08-03T11:34:12.272Z,32.00
2022-08-03T11:37:16.628Z,31.30
2022-08-03T11:39:46.501Z,32.70
2022-08-03T11:42:22.210Z,31.30
2022-08-03T11:44:57.140Z,31.40
2022-08-03T11:47:27.090Z,32.40
2022-08-03T11:49:59.199Z,32.50
2022-08-03T11:52:28.690Z,31.80
2022-08-03T11:54:56.558Z,30.90
2022-08-03T11:59:19.067Z,32.00
2022-08-03T12:00:30.568Z,32.60
2022-08-03T12:02:59.489Z,32.50
2022-08-03T12:05:37.040Z,33.30
2022-08-03T12:08:06.612Z,32.80
2022-08-03T12:10:34.820Z,32.70
2022-08-03T12:13:05.751Z,32.40
2022-08-03T12:15:54.756Z,33.40
2022-08-03T12:18:22.761Z,33.30
2022-08-03T12:20:52.076Z,34.90
2022-08-03T12:23:19.944Z,35.20
2022-08-03T12:25:47.799Z,34.10
2022-08-03T12:28:36.060Z,34.40
2022-08-03T12:31:07.343Z,35.10
2022-08-03T12:34:05.064Z,34.10
2022-08-03T12:36:34.047Z,34.50
2022-08-03T12:39:03.687Z,34.70
2022-08-03T12:41:34.042Z,34.40
2022-08-03T12:44:05.469Z,34.10
2022-08-03T12:46:45.389Z,34.60
2022-08-03T12:49:17.184Z,34.50
2022-08-03T12:51:43.923Z,34.70
2022-08-03T12:54:17.354Z,34.70
2022-08-03T12:57:15.618Z,33.10
2022-08-03T12:59:53.414Z,33.90
2022-08-03T13:02:23.661Z,33.90
2022-08-03T13:04:52.663Z,33.70
2022-08-03T13:07:20.836Z,32.90
2022-08-03T13:09:56.043Z,35.50
2022-08-03T13:12:24.982Z,35.40
2022-08-03T13:14:55.640Z,35.90
2022-08-03T13:17:22.840Z,35.10
2022-08-03T13:19:50.633Z,35.40
2022-08-03T13:22:25.568Z,36.10
2022-08-03T13:24:55.850Z,37.30
2022-08-03T13:28:04.013Z,35.60
2022-08-03T13:30:10.364Z,35.90
2022-08-03T13:32:37.133Z,36.00
2022-08-03T13:35:04.633Z,35.90
2022-08-03T13:37:34.842Z,36.20
2022-08-03T13:40:03.452Z,35.20
2022-08-03T13:42:33.204Z,35.80
2022-08-03T13:45:01.204Z,35.40
2022-08-03T13:47:28.562Z,35.20
2022-08-03T13:50:01.105Z,36.00
2022-08-03T13:52:38.325Z,35.80
2022-08-03T13:55:06.743Z,35.20
2022-08-03T13:58:02.347Z,35.10
2022-08-03T14:00:26.960Z,36.30
2022-08-03T14:03:02.805Z,35.70
2022-08-03T14:05:32.069Z,35.40
2022-08-03T14:08:04.016Z,35.20
2022-08-03T14:10:33.256Z,34.70
2022-08-03T14:13:00.495Z,35.20
2022-08-03T14:15:28.610Z,35.50
2022-08-03T14:17:56.392Z,35.90
2022-08-03T14:20:36.654Z,36.30
2022-08-03T14:23:06.809Z,37.10
2022-08-03T14:25:44.399Z,38.10
2022-08-03T14:28:18.271Z,37.80
2022-08-03T14:30:45.464Z,37.80
2022-08-03T14:33:12.204Z,38.30
2022-08-03T14:35:38.936Z,38.10
2022-08-03T14:38:05.791Z,38.30
2022-08-03T14:40:32.747Z,38.50
2022-08-03T14:42:59.471Z,38.70
2022-08-03T14:45:26.328Z,38.50
2022-08-03T14:50:33.159Z,38.70
2022-08-03T14:50:45.491Z,38.80
2022-08-03T14:53:17.158Z,38.70
2022-08-03T14:55:49.752Z,38.80
2022-08-03T14:58:22.245Z,38.40
2022-08-03T15:00:53.256Z,37.90
2022-08-03T15:03:23.547Z,38.10
2022-08-03T15:05:55.608Z,38.20
2022-08-03T15:08:23.957Z,37.80
2022-08-03T15:10:51.122Z,37.70
2022-08-03T15:13:18.480Z,37.70
2022-08-03T15:15:45.818Z,37.70
2022-08-03T15:18:12.621Z,37.30
2022-08-03T15:20:44.987Z,38.20
2022-08-03T15:23:14.638Z,38.20
2022-08-03T15:26:28.963Z,38.50
2022-08-03T15:28:29.808Z,38.40
2022-08-03T15:30:56.647Z,38.00
2022-08-03T15:33:23.392Z,37.50
2022-08-03T15:35:50.160Z,37.40
2022-08-03T15:38:17.020Z,37.40
2022-08-03T15:40:43.820Z,37.40
2022-08-03T15:43:10.959Z,37.90
2022-08-03T15:45:37.932Z,38.00
2022-08-03T15:48:05.894Z,38.00
2022-08-03T15:50:32.795Z,37.60
2022-08-03T15:52:59.508Z,38.00
2022-08-03T15:55:26.701Z,38.30
2022-08-03T15:59:10.982Z,38.70
2022-08-03T16:00:41.779Z,38.20
2022-08-03T16:03:08.935Z,37.80
2022-08-03T16:05:36.047Z,37.30
2022-08-03T16:08:13.709Z,37.00
2022-08-03T16:10:41.048Z,37.50
2022-08-03T16:13:08.473Z,37.60
2022-08-03T16:15:38.474Z,38.10
2022-08-03T16:18:08.675Z,38.20
2022-08-03T16:20:35.716Z,38.90
2022-08-03T16:23:07.763Z,37.80
2022-08-03T16:25:39.757Z,38.10
2022-08-03T16:28:13.435Z,38.30
2022-08-03T16:30:42.306Z,38.40
2022-08-03T16:33:10.404Z,37.80
2022-08-03T16:35:37.416Z,38.10
2022-08-03T16:38:09.774Z,37.80
2022-08-03T16:40:37.515Z,38.10
2022-08-03T16:43:18.187Z,38.20
2022-08-03T16:45:46.779Z,38.50
2022-08-03T16:48:14.461Z,39.00
2022-08-03T16:50:41.323Z,39.00
2022-08-03T16:53:09.605Z,38.50
2022-08-03T16:55:53.589Z,39.20
2022-08-03T16:58:34.924Z,39.40
2022-08-03T17:01:22.150Z,40.30
2022-08-03T17:04:02.534Z,39.10
2022-08-03T17:06:36.934Z,39.30
2022-08-03T17:09:15.567Z,39.30
2022-08-03T17:11:47.715Z,40.30
2022-08-03T17:14:17.145Z,40.00
2022-08-03T17:16:52.468Z,39.90
2022-08-03T17:19:23.057Z,40.60
2022-08-03T17:22:11.847Z,40.30
2022-08-03T17:24:44.273Z,41.00
2022-08-03T17:27:23.117Z,40.90
2022-08-03T17:30:11.857Z,40.70
2022-08-03T17:32:43.010Z,41.80
2022-08-03T17:35:24.254Z,41.80
2022-08-03T17:38:03.608Z,42.10
2022-08-03T17:40:32.732Z,42.70
2022-08-03T17:43:01.908Z,42.40
2022-08-03T17:45:52.472Z,42.50
2022-08-03T17:48:21.537Z,42.40
2022-08-03T17:51:00.081Z,42.60
2022-08-03T17:53:37.544Z,43.00
2022-08-03T17:56:40.717Z,42.60
2022-08-03T17:59:51.373Z,42.50
2022-08-03T18:03:12.622Z,43.20
2022-08-03T18:06:10.380Z,43.80
2022-08-03T18:08:46.803Z,43.80
2022-08-03T18:11:21.678Z,43.70
2022-08-03T18:13:57.698Z,44.00
2022-08-03T18:16:32.512Z,44.50
2022-08-03T18:19:09.675Z,44.70
2022-08-03T18:22:03.186Z,45.00
2022-08-03T18:24:31.180Z,44.80
2022-08-03T18:27:00.035Z,45.10
2022-08-03T18:29:30.844Z,46.70
2022-08-03T18:32:03.393Z,46.20
2022-08-03T18:34:34.529Z,46.70
2022-08-03T18:37:07.260Z,46.80
2022-08-03T18:39:37.611Z,46.90
2022-08-03T18:42:19.879Z,47.30
2022-08-03T18:44:53.871Z,47.70
2022-08-03T18:47:28.328Z,48.20
2022-08-03T18:50:30.810Z,47.90
2022-08-03T18:53:03.777Z,49.30
2022-08-03T18:55:52.237Z,51.30
2022-08-03T18:58:52.214Z,51.00
2022-08-03T19:01:58.112Z,52.70
2022-08-03T19:04:46.038Z,53.00
2022-08-03T19:07:24.675Z,53.70
2022-08-03T19:09:59.305Z,54.40
2022-08-03T19:13:01.332Z,55.10
2022-08-03T19:15:36.835Z,55.40
2022-08-03T19:18:11.054Z,55.50
2022-08-03T19:20:38.058Z,55.70
2022-08-03T19:23:04.937Z,56.60
2022-08-03T19:25:39.446Z,57.40
2022-08-03T19:28:08.766Z,58.00
2022-08-03T19:30:38.745Z,58.50
2022-08-03T19:33:08.912Z,59.20
2022-08-03T19:35:51.900Z,62.30
2022-08-03T19:38:28.167Z,63.00
2022-08-03T19:43:57.621Z,63.70
2022-08-03T19:46:30.973Z,64.20
2022-08-03T19:49:01.321Z,65.20
2022-08-03T19:52:01.057Z,65.60
2022-08-03T19:54:29.666Z,66.90
2022-08-03T19:57:01.757Z,67.90
2022-08-03T19:59:31.497Z,68.30
2022-08-03T20:01:58.212Z,68.60
2022-08-03T20:04:25.300Z,69.00
2022-08-03T20:06:52.341Z,69.30
2022-08-03T20:09:20.496Z,69.90
2022-08-03T20:11:48.260Z,70.80
2022-08-03T20:14:20.703Z,72.70
2022-08-03T20:16:53.497Z,74.60
2022-08-03T20:19:20.560Z,76.70
2022-08-03T20:21:49.841Z,77.50
2022-08-03T20:24:40.065Z,77.30
2022-08-03T20:27:15.188Z,78.80
2022-08-03T20:30:06.381Z,79.90
2022-08-03T20:32:34.414Z,80.70
2022-08-03T20:35:01.227Z,82.70
2022-08-03T20:37:27.952Z,83.80
2022-08-03T20:39:57.378Z,85.10
2022-08-03T20:42:24.678Z,87.80
2022-08-03T20:45:05.186Z,90.50
2022-08-03T20:47:36.843Z,91.20
2022-08-03T20:50:09.089Z,91.80
2022-08-03T20:52:49.282Z,92.40
2022-08-03T20:55:18.714Z,93.00
2022-08-03T20:57:51.708Z,93.60
2022-08-03T21:00:19.534Z,94.10
2022-08-03T21:02:49.192Z,94.60
2022-08-03T21:05:15.980Z,95.40
2022-08-03T21:08:04.893Z,96.00
2022-08-03T21:10:37.978Z,96.80
2022-08-03T21:13:02.694Z,63.60
2022-08-03T21:13:18.218Z,97.70
2022-08-03T21:16:06.516Z,98.30
2022-08-03T21:18:45.136Z,99.10
2022-08-03T21:21:15.496Z,99.60
2022-08-03T21:23:48.704Z,99.90
2022-08-03T21:26:23.922Z,99.90
2022-08-03T21:28:53.610Z,99.90
2022-08-03T21:31:25.592Z,99.90
2022-08-03T21:34:04.923Z,99.90
2022-08-03T21:36:35.111Z,99.90
2022-08-03T21:39:04.090Z,99.90
2022-08-03T21:41:33.225Z,99.90
2022-08-03T21:44:01.721Z,99.90
2022-08-03T21:46:34.909Z,99.90
2022-08-03T21:50:04.750Z,99.90
2022-08-03T21:51:53.992Z,99.90
2022-08-03T21:54:21.610Z,99.90
2022-08-03T21:56:51.112Z,99.90
2022-08-03T21:59:20.169Z,99.90
2022-08-03T22:01:48.861Z,99.90
2022-08-03T22:04:54.968Z,99.90
2022-08-03T22:07:08.085Z,99.90
2022-08-03T22:09:36.010Z,99.90
2022-08-03T22:12:03.544Z,99.90
2022-08-03T22:14:33.004Z,99.90
2022-08-03T22:17:00.812Z,99.90
2022-08-03T22:19:33.261Z,99.90
2022-08-03T22:22:01.472Z,99.90
2022-08-03T22:24:31.959Z,99.90
2022-08-03T22:27:21.311Z,99.90
2022-08-03T22:29:50.727Z,99.90
2022-08-03T22:32:17.606Z,99.90
2022-08-03T22:34:46.819Z,99.90
2022-08-03T22:37:16.627Z,99.90
2022-08-03T22:39:44.511Z,99.90
2022-08-03T22:42:11.869Z,99.90
2022-08-03T22:44:39.179Z,99.90
2022-08-03T22:47:06.524Z,99.90
2022-08-03T22:49:35.136Z,99.90
2022-08-03T22:52:02.856Z,99.90
2022-08-03T22:54:31.852Z,99.90
2022-08-03T22:56:58.896Z,99.90
2022-08-03T22:59:40.439Z,99.90
2022-08-03T23:02:21.489Z,99.90
2022-08-03T23:04:54.963Z,99.90
2022-08-03T23:07:29.479Z,99.90
2022-08-03T23:09:57.891Z,99.90
2022-08-03T23:12:25.197Z,99.90
2022-08-03T23:14:54.912Z,99.90
2022-08-03T23:17:24.191Z,99.90
2022-08-03T23:19:52.716Z,99.90
2022-08-03T23:22:30.090Z,99.90
2022-08-03T23:24:58.895Z,99.90
2022-08-03T23:27:27.473Z,99.90
2022-08-03T23:29:57.735Z,99.90
2022-08-03T23:32:29.895Z,99.90
2022-08-03T23:35:19.542Z,99.90
2022-08-03T23:38:04.697Z,99.90
2022-08-03T23:40:35.012Z,99.90
2022-08-03T23:43:02.627Z,99.90
2022-08-03T23:45:34.609Z,99.90
2022-08-03T23:48:01.418Z,99.90
2022-08-03T23:50:34.912Z,99.90
2022-08-03T23:53:49.919Z,99.90
2022-08-03T23:56:32.023Z,99.90
2022-08-03T23:59:22.900Z,99.90
